Time;durP1;ratioP1;P1;durP2;ratioP2;P2;SDS_P1;SDS_P2;PMS_P1;PMS_P2;Temp;Humidity;BMP_temperature;BMP_pressure;BME280_temperature;BME280_humidity;BME280_pressure;Samples;Min_cycle;Max_cycle;Signal;HPM_P1;HPM_P2
2023/12/27 00:01:37;;;;;;;;;;;;;;;;;;5069518;28;20398;-87
2023/12/27 00:04:02;;;;;;;;;;;;;;;;;;5070218;28;20379;-85
2023/12/27 00:06:27;;;;;;;;;;;;;;;;;;5071394;28;20492;-84
2023/12/27 00:08:52;;;;;;;;;;;;;;;;;;5072566;28;19923;-84
2023/12/27 00:11:17;;;;;;;;;;;;;;;;;;5069829;28;20340;-85
2023/12/27 00:13:42;;;;;;;;;;;;;;;;;;5067938;28;19948;-84
2023/12/27 00:16:08;;;;;;;;;;;;;;;;;;5074678;28;19912;-85
2023/12/27 00:18:33;;;;;;;;;;;;;;;;;;5074884;28;19909;-85
2023/12/27 00:20:58;;;;;;;;;;;;;;;;;;5074486;28;19991;-85
2023/12/27 00:23:23;;;;;;;;;;;;;;;;;;5073393;28;19908;-85
2023/12/27 00:25:48;;;;;;;;;;;;;;;;;;5073609;28;19908;-85
2023/12/27 00:28:13;;;;;;;;;;;;;;;;;;5074384;28;20102;-85
2023/12/27 00:30:38;;;;;;;;;;;;;;;;;;5072578;28;20013;-85
2023/12/27 00:33:03;;;;;;;;;;;;;;;;;;5073259;28;19948;-85
2023/12/27 00:35:29;;;;;;;;;;;;;;;;;;5073075;28;20003;-85
2023/12/27 00:37:54;;;;;;;;;;;;;;;;;;5074109;28;20383;-85
2023/12/27 00:40:19;;;;;;;;;;;;;;;;;;5075407;28;19916;-85
2023/12/27 00:42:44;;;;;;;;;;;;;;;;;;5073177;28;20009;-85
2023/12/27 00:45:09;;;;;;;;;;;;;;;;;;5074511;28;19992;-84
2023/12/27 00:47:34;;;;;;;;;;;;;;;;;;5074105;28;20370;-84
2023/12/27 00:49:59;;;;;;;;;;;;;;;;;;5073109;28;19939;-84
2023/12/27 00:52:24;;;;;;;;;;;;;;;;;;5073762;28;20445;-84
2023/12/27 00:54:50;;;;;;;;;;;;;;;;;;5073110;28;19958;-84
2023/12/27 00:57:15;;;;;;;;;;;;;;;;;;5074142;28;20374;-85
2023/12/27 00:59:40;;;;;;;;;;;;;;;;;;5073942;28;19937;-84
2023/12/27 01:02:06;;;;;;;;;;;;;;;;;;5074159;28;19961;-84
2023/12/27 01:04:31;;;;;;;;;;;;;;;;;;5072952;28;20547;-84
2023/12/27 01:06:56;;;;;;;;;;;;;;;;;;5073145;28;20387;-84
2023/12/27 01:09:21;;;;;;;;;;;;;;;;;;5073070;28;19924;-85
2023/12/27 01:11:47;;;;;;;;;;;;;;;;;;5074846;28;19920;-82
2023/12/27 01:14:12;;;;;;;;;;;;;;;;;;5073868;28;19908;-85
2023/12/27 01:16:37;;;;;;;;;;;;;;;;;;5073036;28;19928;-85
2023/12/27 01:19:02;;;;;;;;;;;;;;;;;;5072492;28;19916;-84
2023/12/27 01:21:28;;;;;;;;;;;;;;;;;;5073711;28;20298;-83
2023/12/27 01:23:53;;;;;;;;;;;;;;;;;;5074150;28;20367;-83
2023/12/27 01:26:18;;;;;;;;;;;;;;;;;;5072399;28;20389;-85
2023/12/27 01:28:43;;;;;;;;;;;;;;;;;;5074304;28;20367;-84
2023/12/27 01:31:08;;;;;;;;;;;;;;;;;;5072429;28;19912;-85
2023/12/27 01:33:33;;;;;;;;;;;;;;;;;;5071966;28;19916;-86
2023/12/27 01:35:58;;;;;;;;;;;;;;;;;;5073565;28;19908;-84
2023/12/27 01:38:23;;;;;;;;;;;;;;;;;;5072416;28;19912;-84
2023/12/27 01:40:49;;;;;;;;;;;;;;;;;;5072368;28;19931;-84
2023/12/27 01:43:14;;;;;;;;;;;;;;;;;;5073629;28;19939;-84
2023/12/27 01:45:39;;;;;;;;;;;;;;;;;;5073586;28;20179;-86
2023/12/27 01:48:04;;;;;;;;;;;;;;;;;;5073033;28;20299;-84
2023/12/27 01:50:29;;;;;;;;;;;;;;;;;;5071493;28;19912;-82
2023/12/27 01:52:54;;;;;;;;;;;;;;;;;;5072886;28;19943;-83
2023/12/27 01:55:19;;;;;;;;;;;;;;;;;;5071682;28;19978;-84
2023/12/27 01:57:44;;;;;;;;;;;;;;;;;;5071533;28;19912;-83
2023/12/27 02:00:10;;;;;;;;;;;;;;;;;;5071430;28;19908;-85
2023/12/27 02:02:35;;;;;;;;;;;;;;;;;;5071393;28;19958;-85
2023/12/27 02:05:00;;;;;;;;;;;;;;;;;;5071706;28;19956;-84
2023/12/27 02:07:25;;;;;;;;;;;;;;;;;;5071627;28;19909;-83
2023/12/27 02:09:50;;;;;;;;;;;;;;;;;;5071160;28;19916;-84
2023/12/27 02:12:15;;;;;;;;;;;;;;;;;;5070957;28;20382;-84
2023/12/27 02:14:41;;;;;;;;;;;;;;;;;;5070997;28;19970;-84
2023/12/27 02:17:06;;;;;;;;;;;;;;;;;;5071254;28;19920;-85
2023/12/27 02:19:31;;;;;;;;;;;;;;;;;;5072210;28;19925;-84
2023/12/27 02:21:56;;;;;;;;;;;;;;;;;;5071099;28;19953;-83
2023/12/27 02:24:21;;;;;;;;;;;;;;;;;;5071564;28;19908;-84
2023/12/27 02:26:46;;;;;;;;;;;;;;;;;;5071201;28;20256;-84
2023/12/27 02:29:11;;;;;;;;;;;;;;;;;;5070914;28;19909;-83
2023/12/27 02:31:36;;;;;;;;;;;;;;;;;;5070994;28;19919;-84
2023/12/27 02:34:01;;;;;;;;;;;;;;;;;;5071336;28;19909;-85
2023/12/27 02:36:27;;;;;;;;;;;;;;;;;;5071131;28;20383;-84
2023/12/27 02:38:52;;;;;;;;;;;;;;;;;;5071029;28;19915;-83
2023/12/27 02:41:17;;;;;;;;;;;;;;;;;;5071049;28;19973;-84
2023/12/27 02:43:42;;;;;;;;;;;;;;;;;;5070958;28;19913;-86
2023/12/27 02:46:07;;;;;;;;;;;;;;;;;;5070973;28;20378;-84
2023/12/27 02:48:32;;;;;;;;;;;;;;;;;;5072170;28;19999;-85
2023/12/27 02:50:57;;;;;;;;;;;;;;;;;;5070884;28;19917;-84
2023/12/27 02:53:23;;;;;;;;;;;;;;;;;;5071068;28;19909;-84
2023/12/27 02:55:48;;;;;;;;;;;;;;;;;;5079586;28;19916;-84
2023/12/27 02:58:14;;;;;;;;;;;;;;;;;;5072094;28;19909;-85
2023/12/27 03:00:39;;;;;;;;;;;;;;;;;;5070730;28;19916;-82
2023/12/27 03:03:04;;;;;;;;;;;;;;;;;;5072048;28;19909;-85
2023/12/27 03:05:29;;;;;;;;;;;;;;;;;;5070786;28;19909;-84
2023/12/27 03:07:55;;;;;;;;;;;;;;;;;;5072235;28;20313;-84
2023/12/27 03:10:20;;;;;;;;;;;;;;;;;;5071892;28;20375;-85
2023/12/27 03:12:45;;;;;;;;;;;;;;;;;;5072005;28;20317;-84
2023/12/27 03:15:10;;;;;;;;;;;;;;;;;;5072262;28;20386;-83
2023/12/27 03:17:35;;;;;;;;;;;;;;;;;;5072044;28;19962;-85
2023/12/27 03:20:00;;;;;;;;;;;;;;;;;;5070912;28;19908;-84
2023/12/27 03:22:25;;;;;;;;;;;;;;;;;;5070393;28;19908;-83
2023/12/27 03:24:50;;;;;;;;;;;;;;;;;;5072206;28;19909;-84
2023/12/27 03:27:15;;;;;;;;;;;;;;;;;;5072151;28;19920;-85
2023/12/27 03:29:40;;;;;;;;;;;;;;;;;;5070513;28;20003;-84
2023/12/27 03:32:06;;;;;;;;;;;;;;;;;;5070466;28;19909;-85
2023/12/27 03:34:31;;;;;;;;;;;;;;;;;;5071793;28;19913;-85
2023/12/27 03:36:56;;;;;;;;;;;;;;;;;;5073257;28;19913;-84
2023/12/27 03:39:21;;;;;;;;;;;;;;;;;;5074123;28;20005;-86
2023/12/27 03:41:47;;;;;;;;;;;;;;;;;;5073768;28;19995;-85
2023/12/27 03:44:12;;;;;;;;;;;;;;;;;;5073961;28;19964;-85
2023/12/27 03:46:37;;;;;;;;;;;;;;;;;;5074210;28;20293;-85
2023/12/27 03:49:02;;;;;;;;;;;;;;;;;;5074052;28;20395;-85
2023/12/27 03:51:27;;;;;;;;;;;;;;;;;;5073664;28;20367;-84
2023/12/27 03:53:52;;;;;;;;;;;;;;;;;;5073829;28;19952;-85
2023/12/27 03:56:17;;;;;;;;;;;;;;;;;;5073994;28;19909;-84
2023/12/27 03:58:43;;;;;;;;;;;;;;;;;;5073399;28;19909;-85
2023/12/27 04:01:08;;;;;;;;;;;;;;;;;;5073644;28;19936;-84
2023/12/27 04:03:33;;;;;;;;;;;;;;;;;;5073950;28;19916;-84
2023/12/27 04:05:58;;;;;;;;;;;;;;;;;;5073672;28;19908;-85
2023/12/27 04:08:23;;;;;;;;;;;;;;;;;;5074607;28;20393;-85
2023/12/27 04:10:49;;;;;;;;;;;;;;;;;;5074594;28;19919;-85
2023/12/27 04:13:14;;;;;;;;;;;;;;;;;;5074841;28;19915;-85
2023/12/27 04:15:39;;;;;;;;;;;;;;;;;;5073289;28;19913;-84
2023/12/27 04:18:07;;;;;;;;;;;;;;;;;;5073319;28;19908;-85
2023/12/27 04:20:32;;;;;;;;;;;;;;;;;;5073280;28;20011;-84
2023/12/27 04:22:57;;;;;;;;;;;;;;;;;;5073914;28;19966;-83
2023/12/27 04:25:22;;;;;;;;;;;;;;;;;;5073676;28;19916;-83
2023/12/27 04:27:47;;;;;;;;;;;;;;;;;;5073118;28;20145;-84
2023/12/27 04:30:12;;;;;;;;;;;;;;;;;;5072931;28;20034;-85
2023/12/27 04:32:37;;;;;;;;;;;;;;;;;;5074358;28;19916;-86
2023/12/27 04:35:02;;;;;;;;;;;;;;;;;;5073311;28;19909;-85
2023/12/27 04:37:27;;;;;;;;;;;;;;;;;;5072853;28;19966;-86
2023/12/27 04:39:52;;;;;;;;;;;;;;;;;;5072762;28;19909;-84
2023/12/27 04:42:18;;;;;;;;;;;;;;;;;;5073829;28;19916;-85
2023/12/27 04:44:43;;;;;;;;;;;;;;;;;;5074125;28;19916;-86
2023/12/27 04:47:08;;;;;;;;;;;;;;;;;;5074690;28;20290;-85
2023/12/27 04:49:33;;;;;;;;;;;;;;;;;;5072747;28;20031;-84
2023/12/27 04:51:58;;;;;;;;;;;;;;;;;;5072346;28;20374;-85
2023/12/27 04:54:23;;;;;;;;;;;;;;;;;;5072606;28;19930;-85
2023/12/27 04:56:49;;;;;;;;;;;;;;;;;;5072325;28;20371;-84
2023/12/27 04:59:14;;;;;;;;;;;;;;;;;;5072374;28;19908;-86
2023/12/27 05:01:39;;;;;;;;;;;;;;;;;;5072233;28;19909;-83
2023/12/27 05:04:04;;;;;;;;;;;;;;;;;;5072383;28;20395;-85
2023/12/27 05:06:29;;;;;;;;;;;;;;;;;;5072378;28;20375;-84
2023/12/27 05:08:55;;;;;;;;;;;;;;;;;;5072221;28;19917;-85
2023/12/27 05:11:21;;;;;;;;;;;;;;;;;;5072128;28;20001;-85
2023/12/27 05:13:46;;;;;;;;;;;;;;;;;;5072078;28;19909;-84
2023/12/27 05:16:11;;;;;;;;;;;;;;;;;;5072241;28;19908;-85
2023/12/27 05:18:36;;;;;;;;;;;;;;;;;;5072010;28;20044;-85
2023/12/27 05:21:02;;;;;;;;;;;;;;;;;;5072018;28;19909;-85
2023/12/27 05:23:27;;;;;;;;;;;;;;;;;;5073221;28;19912;-84
2023/12/27 05:25:52;;;;;;;;;;;;;;;;;;5073314;28;19915;-85
2023/12/27 05:28:17;;;;;;;;;;;;;;;;;;5073050;28;19912;-84
2023/12/27 05:30:42;;;;;;;;;;;;;;;;;;5071661;28;19963;-85
2023/12/27 05:33:07;;;;;;;;;;;;;;;;;;5073024;28;20290;-84
2023/12/27 05:35:32;;;;;;;;;;;;;;;;;;5071742;28;19954;-85
2023/12/27 05:37:57;;;;;;;;;;;;;;;;;;5071774;28;19912;-84
2023/12/27 05:40:22;;;;;;;;;;;;;;;;;;5072740;28;19985;-84
2023/12/27 05:42:47;;;;;;;;;;;;;;;;;;5071619;28;19916;-85
2023/12/27 05:45:13;;;;;;;;;;;;;;;;;;5071399;28;20397;-85
2023/12/27 05:47:38;;;;;;;;;;;;;;;;;;5072917;28;19915;-85
2023/12/27 05:50:03;;;;;;;;;;;;;;;;;;5071271;28;19920;-82
2023/12/27 05:52:28;;;;;;;;;;;;;;;;;;5071312;28;20390;-85
2023/12/27 05:54:53;;;;;;;;;;;;;;;;;;5071812;28;20075;-84
2023/12/27 05:57:18;;;;;;;;;;;;;;;;;;5071460;28;19947;-85
2023/12/27 05:59:43;;;;;;;;;;;;;;;;;;5071118;28;19999;-85
2023/12/27 06:02:08;;;;;;;;;;;;;;;;;;5071308;28;19999;-85
2023/12/27 06:04:34;;;;;;;;;;;;;;;;;;5072527;28;19931;-85
2023/12/27 06:06:59;;;;;;;;;;;;;;;;;;5072551;28;19912;-85
2023/12/27 06:09:25;;;;;;;;;;;;;;;;;;5072305;28;19916;-86
2023/12/27 06:11:50;;;;;;;;;;;;;;;;;;5071164;28;20418;-85
2023/12/27 06:14:15;;;;;;;;;;;;;;;;;;5073557;28;19912;-86
2023/12/27 06:16:40;;;;;;;;;;;;;;;;;;5071234;28;19908;-85
2023/12/27 06:19:05;;;;;;;;;;;;;;;;;;5071419;28;19909;-86
2023/12/27 06:21:30;;;;;;;;;;;;;;;;;;5072477;28;19954;-85
2023/12/27 06:23:56;;;;;;;;;;;;;;;;;;5072274;28;19909;-85
2023/12/27 06:26:21;;;;;;;;;;;;;;;;;;5071146;28;19909;-85
2023/12/27 06:28:46;;;;;;;;;;;;;;;;;;5071295;28;19920;-85
2023/12/27 06:31:11;;;;;;;;;;;;;;;;;;5071143;28;20267;-84
2023/12/27 06:33:37;;;;;;;;;;;;;;;;;;5070987;28;20411;-85
2023/12/27 06:36:02;;;;;;;;;;;;;;;;;;5072454;28;19909;-85
2023/12/27 06:38:27;;;;;;;;;;;;;;;;;;5071196;28;19965;-85
2023/12/27 06:40:52;;;;;;;;;;;;;;;;;;5070889;28;19924;-85
2023/12/27 06:43:17;;;;;;;;;;;;;;;;;;5070769;28;19931;-85
2023/12/27 06:45:42;;;;;;;;;;;;;;;;;;5070949;28;19908;-85
2023/12/27 06:48:07;;;;;;;;;;;;;;;;;;5072465;28;19912;-85
2023/12/27 06:50:32;;;;;;;;;;;;;;;;;;5070650;28;19970;-85
2023/12/27 06:52:57;;;;;;;;;;;;;;;;;;5072023;28;20354;-84
2023/12/27 06:55:22;;;;;;;;;;;;;;;;;;5070663;28;19913;-85
2023/12/27 06:57:47;;;;;;;;;;;;;;;;;;5071958;28;19916;-85
2023/12/27 07:00:13;;;;;;;;;;;;;;;;;;5070159;28;19920;-85
2023/12/27 07:02:39;;;;;;;;;;;;;;;;;;5072052;28;19919;-85
2023/12/27 07:05:04;;;;;;;;;;;;;;;;;;5071929;28;20259;-85
2023/12/27 07:07:31;;;;;;;;;;;;;;;;;;5067563;28;20394;-85
2023/12/27 07:09:57;;;;;;;;;;;;;;;;;;5072082;28;19972;-85
2023/12/27 07:12:23;;;;;;;;;;;;;;;;;;5076240;28;19995;-85
2023/12/27 07:14:49;;;;;;;;;;;;;;;;;;5074583;28;19912;-85
2023/12/27 07:17:14;;;;;;;;;;;;;;;;;;5074757;28;19915;-85
2023/12/27 07:19:39;;;;;;;;;;;;;;;;;;5074407;28;19967;-86
2023/12/27 07:22:04;;;;;;;;;;;;;;;;;;5074178;28;19947;-85
2023/12/27 07:24:29;;;;;;;;;;;;;;;;;;5075414;28;19999;-85
2023/12/27 07:26:54;;;;;;;;;;;;;;;;;;5074661;28;19989;-85
2023/12/27 07:29:19;;;;;;;;;;;;;;;;;;5076131;28;19915;-85
2023/12/27 07:31:45;;;;;;;;;;;;;;;;;;5076404;28;19912;-86
2023/12/27 07:34:10;;;;;;;;;;;;;;;;;;5076995;28;20328;-85
2023/12/27 07:36:35;;;;;;;;;;;;;;;;;;5077515;28;19909;-85
2023/12/27 07:39:00;;;;;;;;;;;;;;;;;;5076424;28;19999;-85
2023/12/27 07:41:25;;;;;;;;;;;;;;;;;;5076149;28;19909;-85
2023/12/27 07:43:50;;;;;;;;;;;;;;;;;;5076032;28;19909;-85
2023/12/27 07:46:15;;;;;;;;;;;;;;;;;;5075477;28;19909;-85
2023/12/27 07:48:40;;;;;;;;;;;;;;;;;;5076284;28;19955;-85
2023/12/27 07:51:06;;;;;;;;;;;;;;;;;;5074310;28;19912;-86
2023/12/27 07:53:31;;;;;;;;;;;;;;;;;;5074264;28;19909;-86
2023/12/27 07:55:56;;;;;;;;;;;;;;;;;;5075579;28;19920;-86
2023/12/27 07:58:21;;;;;;;;;;;;;;;;;;5075442;28;19908;-86
2023/12/27 08:00:46;;;;;;;;;;;;;;;;;;5076283;28;19912;-86
2023/12/27 08:03:11;;;;;;;;;;;;;;;;;;5074591;28;19986;-86
2023/12/27 08:05:36;;;;;;;;;;;;;;;;;;5075118;28;20333;-85
2023/12/27 08:08:02;;;;;;;;;;;;;;;;;;5074979;28;20307;-88
2023/12/27 08:10:27;;;;;;;;;;;;;;;;;;5074778;28;19917;-85
2023/12/27 08:12:52;;;;;;;;;;;;;;;;;;5074793;28;19913;-86
2023/12/27 08:15:17;;;;;;;;;;;;;;;;;;5076193;28;19990;-85
2023/12/27 08:17:42;;;;;;;;;;;;;;;;;;5074602;28;19951;-86
2023/12/27 08:20:08;;;;;;;;;;;;;;;;;;5075875;28;20597;-85
2023/12/27 08:22:33;;;;;;;;;;;;;;;;;;5073392;28;19908;-86
2023/12/27 08:24:58;;;;;;;;;;;;;;;;;;5076007;28;19912;-87
2023/12/27 08:27:23;;;;;;;;;;;;;;;;;;5074794;28;19916;-86
2023/12/27 08:29:48;;;;;;;;;;;;;;;;;;5075011;28;19917;-85
2023/12/27 08:32:14;;;;;;;;;;;;;;;;;;5075457;28;19919;-86
2023/12/27 08:34:39;;;;;;;;;;;;;;;;;;5074036;28;19931;-86
2023/12/27 08:37:04;;;;;;;;;;;;;;;;;;5075387;28;20286;-86
2023/12/27 08:39:29;;;;;;;;;;;;;;;;;;5073499;28;19908;-92
2023/12/27 08:41:54;;;;;;;;;;;;;;;;;;5071693;28;19913;-87
2023/12/27 08:44:19;;;;;;;;;;;;;;;;;;5073514;28;20297;-86
2023/12/27 08:46:44;;;;;;;;;;;;;;;;;;5072968;28;19908;-86
2023/12/27 08:49:09;;;;;;;;;;;;;;;;;;5073647;28;19908;-86
2023/12/27 08:51:35;;;;;;;;;;;;;;;;;;5072125;28;19919;-85
2023/12/27 08:54:00;;;;;;;;;;;;;;;;;;5073567;28;19919;-86
2023/12/27 08:56:37;;;;;;;;;;;;;;;;;;5072635;28;19915;-87
2023/12/27 08:59:02;;;;;;;;;;;;;;;;;;5072029;28;19918;-86
2023/12/27 09:01:50;;;;;;;;;;;;;;;;;;;;;
2023/12/27 09:04:33;;;;;;;;;;;;;;;;;;5073455;28;19908;-87
2023/12/27 09:07:04;;;;;;;;;;;;;;;;;;5066431;28;19909;-87
2023/12/27 09:09:30;;;;;;;;;;;;;;;;;;5071574;28;19920;-87
2023/12/27 09:11:55;;;;;;;;;;;;;;;;;;5072276;28;19965;-87
2023/12/27 09:17:18;;;;;;;;;;;;;;;;;;5073130;28;19909;-87
2023/12/27 09:19:43;;;;;;;;;;;;;;;;;;5071990;28;19915;-85
2023/12/27 09:22:08;;;;;;;;;;;;;;;;;;5067656;28;19912;-85
2023/12/27 09:24:33;;;;;;;;;;;;;;;;;;5070004;28;19912;-85
2023/12/27 09:26:59;;;;;;;;;;;;;;;;;;5071685;28;20397;-85
2023/12/27 09:29:24;;;;;;;;;;;;;;;;;;5071966;28;19916;-86
2023/12/27 09:31:49;;;;;;;;;;;;;;;;;;5079208;22;19995;-86
2023/12/27 09:34:14;;;;;;;;;;;;;;;;;;5068772;28;19916;-85
2023/12/27 09:36:39;;;;;;;;;;;;;;;;;;5075653;28;20443;-85
2023/12/27 09:39:04;;;;;;;;;;;;;;;;;;5069101;28;20375;-89
2023/12/27 09:41:30;;;;;;;;;;;;;;;;;;5062783;28;20045;-86
2023/12/27 09:43:55;;;;;;;;;;;;;;;;;;5069806;28;19974;-86
2023/12/27 09:46:20;;;;;;;;;;;;;;;;;;5068495;28;19909;-85
2023/12/27 09:48:45;;;;;;;;;;;;;;;;;;5072764;28;19912;-86
2023/12/27 09:51:14;;;;;;;;;;;;;;;;;;5070858;28;19929;-86
2023/12/27 09:53:44;;;;;;;;;;;;;;;;;;5072871;28;19931;-85
2023/12/27 09:56:09;;;;;;;;;;;;;;;;;;5071885;28;20286;-85
2023/12/27 09:58:34;;;;;;;;;;;;;;;;;;5071980;28;20334;-86
2023/12/27 10:00:59;;;;;;;;;;;;;;;;;;5070427;28;19930;-86
2023/12/27 10:03:24;;;;;;;;;;;;;;;;;;5068879;28;19939;-85
2023/12/27 10:05:49;;;;;;;;;;;;;;;;;;5068010;28;19913;-85
2023/12/27 10:08:15;;;;;;;;;;;;;;;;;;5070579;28;19912;-87
2023/12/27 10:10:40;;;;;;;;;;;;;;;;;;5074281;28;19912;-86
2023/12/27 10:13:05;;;;;;;;;;;;;;;;;;5070707;28;19939;-86
2023/12/27 10:15:30;;;;;;;;;;;;;;;;;;5075230;28;20510;-86
2023/12/27 10:17:55;;;;;;;;;;;;;;;;;;5077053;28;20011;-85
2023/12/27 10:20:20;;;;;;;;;;;;;;;;;;5069352;28;19909;-86
2023/12/27 10:22:45;;;;;;;;;;;;;;;;;;5070690;28;19913;-86
2023/12/27 10:25:10;;;;;;;;;;;;;;;;;;5070961;28;20393;-86
2023/12/27 10:27:36;;;;;;;;;;;;;;;;;;5070235;28;19908;-86
2023/12/27 10:30:01;;;;;;;;;;;;;;;;;;5069679;28;19913;-85
2023/12/27 10:32:27;;;;;;;;;;;;;;;;;;5069246;28;20606;-84
2023/12/27 10:34:52;;;;;;;;;;;;;;;;;;5070488;28;20001;-86
2023/12/27 10:37:17;;;;;;;;;;;;;;;;;;5074616;28;19908;-86
2023/12/27 10:39:44;;;;;;;;;;;;;;;;;;5078882;28;20359;-87
2023/12/27 10:42:09;;;;;;;;;;;;;;;;;;5071849;28;20379;-86
2023/12/27 10:44:34;;;;;;;;;;;;;;;;;;5070515;28;19927;-86
2023/12/27 10:46:59;;;;;;;;;;;;;;;;;;5076676;28;19909;-85
2023/12/27 10:49:25;;;;;;;;;;;;;;;;;;5077630;28;19908;-87
2023/12/27 10:51:50;;;;;;;;;;;;;;;;;;5074201;28;20007;-86
2023/12/27 10:54:15;;;;;;;;;;;;;;;;;;5075080;28;19917;-85
2023/12/27 10:56:40;;;;;;;;;;;;;;;;;;5079018;28;19935;-89
2023/12/27 10:59:05;;;;;;;;;;;;;;;;;;5083470;28;19913;-88
2023/12/27 11:01:30;;;;;;;;;;;;;;;;;;5075551;28;19916;-89
2023/12/27 11:03:58;;;;;;;;;;;;;;;;;;5083818;28;19954;-86
2023/12/27 11:06:23;;;;;;;;;;;;;;;;;;5083391;28;20345;-86
2023/12/27 11:08:48;;;;;;;;;;;;;;;;;;5077505;28;19916;-85
2023/12/27 11:11:13;;;;;;;;;;;;;;;;;;5077039;28;19920;-86
2023/12/27 11:13:39;;;;;;;;;;;;;;;;;;5074455;28;19908;-86
2023/12/27 11:16:04;;;;;;;;;;;;;;;;;;5073126;28;19909;-86
2023/12/27 11:18:30;;;;;;;;;;;;;;;;;;5082893;28;19908;-86
2023/12/27 11:20:56;;;;;;;;;;;;;;;;;;5075235;28;19908;-86
2023/12/27 11:23:21;;;;;;;;;;;;;;;;;;5074340;28;19909;-86
2023/12/27 11:25:46;;;;;;;;;;;;;;;;;;5083667;28;19915;-86
2023/12/27 11:28:12;;;;;;;;;;;;;;;;;;5075196;28;19909;-87
2023/12/27 11:30:38;;;;;;;;;;;;;;;;;;5074768;28;19913;-86
2023/12/27 11:33:03;;;;;;;;;;;;;;;;;;5074940;28;19966;-87
2023/12/27 11:35:28;;;;;;;;;;;;;;;;;;5074782;28;19912;-87
2023/12/27 11:37:53;;;;;;;;;;;;;;;;;;5072944;28;19908;-86
2023/12/27 11:40:18;;;;;;;;;;;;;;;;;;5073525;28;19936;-87
2023/12/27 11:42:43;;;;;;;;;;;;;;;;;;5075677;28;19931;-86
2023/12/27 11:45:08;;;;;;;;;;;;;;;;;;5063544;28;19913;-86
2023/12/27 11:47:34;;;;;;;;;;;;;;;;;;5072902;28;19917;-86
2023/12/27 11:49:59;;;;;;;;;;;;;;;;;;5072809;28;20375;-85
2023/12/27 11:52:24;;;;;;;;;;;;;;;;;;5073131;28;19915;-86
2023/12/27 11:54:49;;;;;;;;;;;;;;;;;;5079386;28;19931;-86
2023/12/27 11:57:15;;;;;;;;;;;;;;;;;;5073609;28;20030;-86
2023/12/27 11:59:40;;;;;;;;;;;;;;;;;;5073299;28;19908;-87
2023/12/27 12:02:05;;;;;;;;;;;;;;;;;;5074095;28;19971;-86
2023/12/27 12:04:30;;;;;;;;;;;;;;;;;;5074623;28;20370;-86
2023/12/27 12:06:56;;;;;;;;;;;;;;;;;;5073552;28;19908;-85
2023/12/27 12:09:21;;;;;;;;;;;;;;;;;;5073408;28;19995;-87
2023/12/27 12:11:46;;;;;;;;;;;;;;;;;;5074277;28;19920;-87
2023/12/27 12:14:11;;;;;;;;;;;;;;;;;;5074559;28;20341;-87
2023/12/27 12:16:36;;;;;;;;;;;;;;;;;;5074215;28;20333;-86
2023/12/27 12:19:02;;;;;;;;;;;;;;;;;;5079261;28;20276;-87
2023/12/27 12:21:28;;;;;;;;;;;;;;;;;;5077606;28;19909;-88
2023/12/27 12:23:53;;;;;;;;;;;;;;;;;;5073212;28;19959;-86
2023/12/27 12:26:18;;;;;;;;;;;;;;;;;;5073397;28;19972;-87
2023/12/27 12:28:43;;;;;;;;;;;;;;;;;;5074519;28;20322;-87
2023/12/27 12:31:08;;;;;;;;;;;;;;;;;;5072773;28;19913;-87
2023/12/27 12:33:33;;;;;;;;;;;;;;;;;;5072508;28;19920;-87
2023/12/27 12:35:59;;;;;;;;;;;;;;;;;;5070696;28;19908;-87
2023/12/27 12:38:24;;;;;;;;;;;;;;;;;;5072842;28;19932;-88
2023/12/27 12:40:49;;;;;;;;;;;;;;;;;;5072588;28;19923;-88
2023/12/27 12:43:14;;;;;;;;;;;;;;;;;;5080719;28;19930;-88
2023/12/27 12:45:40;;;;;;;;;;;;;;;;;;5074235;28;20379;-86
2023/12/27 12:48:05;;;;;;;;;;;;;;;;;;5072984;28;19919;-87
2023/12/27 12:50:30;;;;;;;;;;;;;;;;;;5073665;28;19958;-87
2023/12/27 12:52:55;;;;;;;;;;;;;;;;;;5081103;28;19912;-87
2023/12/27 12:55:22;;;;;;;;;;;;;;;;;;5080254;28;19915;-87
2023/12/27 12:57:48;;;;;;;;;;;;;;;;;;5082656;28;19970;-87
2023/12/27 13:00:13;;;;;;;;;;;;;;;;;;5073332;28;20430;-88
2023/12/27 13:02:38;;;;;;;;;;;;;;;;;;5072296;28;20363;-87
2023/12/27 13:05:03;;;;;;;;;;;;;;;;;;5072266;28;19909;-87
2023/12/27 13:07:29;;;;;;;;;;;;;;;;;;5072514;28;20344;-86
2023/12/27 13:09:54;;;;;;;;;;;;;;;;;;5070200;28;19959;-88
2023/12/27 13:12:19;;;;;;;;;;;;;;;;;;5073590;28;20007;-87
2023/12/27 13:14:44;;;;;;;;;;;;;;;;;;5073165;28;19962;-88
2023/12/27 13:17:09;;;;;;;;;;;;;;;;;;5071834;28;19909;-87
2023/12/27 13:19:34;;;;;;;;;;;;;;;;;;5072504;28;19908;-87
2023/12/27 13:21:59;;;;;;;;;;;;;;;;;;5073302;28;19920;-86
2023/12/27 13:24:25;;;;;;;;;;;;;;;;;;5072182;28;19913;-87
2023/12/27 13:26:51;;;;;;;;;;;;;;;;;;5080330;28;19908;-87
2023/12/27 13:29:17;;;;;;;;;;;;;;;;;;5080051;28;19908;-87
2023/12/27 13:31:45;;;;;;;;;;;;;;;;;;5080542;28;20434;-87
2023/12/27 13:34:10;;;;;;;;;;;;;;;;;;5073037;28;19916;-87
2023/12/27 13:36:35;;;;;;;;;;;;;;;;;;5081312;28;20489;-87
2023/12/27 13:39:01;;;;;;;;;;;;;;;;;;5079837;28;20050;-87
2023/12/27 13:41:26;;;;;;;;;;;;;;;;;;5079605;28;19948;-87
2023/12/27 13:43:51;;;;;;;;;;;;;;;;;;5071186;28;20371;-87
2023/12/27 13:46:16;;;;;;;;;;;;;;;;;;5068431;28;19919;-87
2023/12/27 13:48:41;;;;;;;;;;;;;;;;;;5072518;28;19931;-87
2023/12/27 13:51:06;;;;;;;;;;;;;;;;;;5071257;28;20003;-87
2023/12/27 13:53:31;;;;;;;;;;;;;;;;;;5071508;28;19912;-87
2023/12/27 13:55:57;;;;;;;;;;;;;;;;;;5071380;28;19908;-87
2023/12/27 13:58:22;;;;;;;;;;;;;;;;;;5071906;28;19908;-87
2023/12/27 14:00:47;;;;;;;;;;;;;;;;;;5082264;28;19923;-87
2023/12/27 14:03:12;;;;;;;;;;;;;;;;;;5076772;28;20349;-87
2023/12/27 14:05:38;;;;;;;;;;;;;;;;;;5080566;28;19914;-87
2023/12/27 14:08:03;;;;;;;;;;;;;;;;;;5071242;28;19908;-88
2023/12/27 14:10:28;;;;;;;;;;;;;;;;;;5080385;28;19965;-87
2023/12/27 14:12:55;;;;;;;;;;;;;;;;;;5071153;28;19912;-88
2023/12/27 14:15:20;;;;;;;;;;;;;;;;;;5072272;28;19908;-86
2023/12/27 14:17:46;;;;;;;;;;;;;;;;;;5071056;28;19943;-88
2023/12/27 14:20:12;;;;;;;;;;;;;;;;;;5070760;28;19909;-88
2023/12/27 14:22:37;;;;;;;;;;;;;;;;;;5073944;28;19999;-88
2023/12/27 14:25:04;;;;;;;;;;;;;;;;;;5084091;28;19956;-88
2023/12/27 14:27:29;;;;;;;;;;;;;;;;;;5075465;28;20431;-88
2023/12/27 14:29:55;;;;;;;;;;;;;;;;;;5084037;28;20405;-88
2023/12/27 14:32:21;;;;;;;;;;;;;;;;;;5082065;28;19947;-87
2023/12/27 14:34:46;;;;;;;;;;;;;;;;;;5079852;28;19930;-88
2023/12/27 14:37:11;;;;;;;;;;;;;;;;;;5071069;28;19931;-87
2023/12/27 14:39:36;;;;;;;;;;;;;;;;;;5070695;28;19909;-87
2023/12/27 14:42:03;;;;;;;;;;;;;;;;;;5080336;28;20474;-87
2023/12/27 14:44:31;;;;;;;;;;;;;;;;;;5067798;28;20406;-86
2023/12/27 14:46:57;;;;;;;;;;;;;;;;;;5070706;28;19962;-87
2023/12/27 14:49:22;;;;;;;;;;;;;;;;;;5071505;28;19909;-85
2023/12/27 14:51:47;;;;;;;;;;;;;;;;;;5079761;28;19920;-87
2023/12/27 14:54:13;;;;;;;;;;;;;;;;;;5072750;28;19935;-87
2023/12/27 14:56:38;;;;;;;;;;;;;;;;;;5071743;28;19909;-87
2023/12/27 14:59:04;;;;;;;;;;;;;;;;;;5077508;28;19912;-87
2023/12/27 15:01:29;;;;;;;;;;;;;;;;;;5071890;28;19915;-87
2023/12/27 15:03:55;;;;;;;;;;;;;;;;;;5078977;28;19913;-87
2023/12/27 15:06:20;;;;;;;;;;;;;;;;;;5071773;28;19915;-87
2023/12/27 15:08:45;;;;;;;;;;;;;;;;;;5071582;28;19912;-86
2023/12/27 15:11:10;;;;;;;;;;;;;;;;;;5065516;28;20028;-86
2023/12/27 15:13:35;;;;;;;;;;;;;;;;;;5070952;28;19912;-86
2023/12/27 15:16:00;;;;;;;;;;;;;;;;;;5069431;28;19908;-87
2023/12/27 15:18:30;;;;;;;;;;;;;;;;;;5070403;28;19912;-86
2023/12/27 15:20:55;;;;;;;;;;;;;;;;;;5071485;28;19913;-87
2023/12/27 15:23:20;;;;;;;;;;;;;;;;;;5071685;28;19915;-87
2023/12/27 15:25:45;;;;;;;;;;;;;;;;;;5069911;28;19966;-86
2023/12/27 15:28:14;;;;;;;;;;;;;;;;;;5071373;28;19944;-87
2023/12/27 15:30:39;;;;;;;;;;;;;;;;;;5069889;28;20174;-87
2023/12/27 15:33:05;;;;;;;;;;;;;;;;;;5073205;28;20002;-87
2023/12/27 15:35:30;;;;;;;;;;;;;;;;;;5074229;28;20050;-85
2023/12/27 15:37:56;;;;;;;;;;;;;;;;;;5083612;28;19908;-86
2023/12/27 15:40:21;;;;;;;;;;;;;;;;;;5075148;28;19999;-86
2023/12/27 15:42:46;;;;;;;;;;;;;;;;;;5075011;28;19916;-87
2023/12/27 15:45:11;;;;;;;;;;;;;;;;;;5080016;28;19948;-87
2023/12/27 15:47:36;;;;;;;;;;;;;;;;;;5076032;28;19909;-87
2023/12/27 15:50:01;;;;;;;;;;;;;;;;;;5078633;28;20044;-87
2023/12/27 15:52:26;;;;;;;;;;;;;;;;;;5076739;28;20000;-86
2023/12/27 15:54:59;;;;;;;;;;;;;;;;;;5071981;28;19948;-87
2023/12/27 15:57:24;;;;;;;;;;;;;;;;;;5073393;28;19915;-87
2023/12/27 15:59:50;;;;;;;;;;;;;;;;;;5081611;28;20002;-87
2023/12/27 16:02:15;;;;;;;;;;;;;;;;;;5081271;28;20003;-87
2023/12/27 16:04:40;;;;;;;;;;;;;;;;;;5072477;28;20003;-87
2023/12/27 16:07:05;;;;;;;;;;;;;;;;;;5079969;28;20337;-86
2023/12/27 16:09:33;;;;;;;;;;;;;;;;;;5077295;28;20387;-86
2023/12/27 16:11:58;;;;;;;;;;;;;;;;;;5073011;28;20343;-86
2023/12/27 16:14:23;;;;;;;;;;;;;;;;;;5073234;28;19943;-87
2023/12/27 16:16:48;;;;;;;;;;;;;;;;;;5076136;28;20378;-86
2023/12/27 16:19:13;;;;;;;;;;;;;;;;;;5073001;28;19916;-86
2023/12/27 16:21:41;;;;;;;;;;;;;;;;;;5074390;28;19958;-86
2023/12/27 16:24:06;;;;;;;;;;;;;;;;;;5071662;28;19913;-86
2023/12/27 16:26:32;;;;;;;;;;;;;;;;;;5071558;28;19940;-87
2023/12/27 16:28:57;;;;;;;;;;;;;;;;;;5070981;28;19934;-86
2023/12/27 16:31:23;;;;;;;;;;;;;;;;;;5072083;28;19912;-86
2023/12/27 16:33:49;;;;;;;;;;;;;;;;;;5073820;28;19979;-87
2023/12/27 16:36:15;;;;;;;;;;;;;;;;;;5073919;28;19908;-86